createdAt,value
2018-10-17T00:02:07.738Z,30.20
2018-10-17T00:04:36.229Z,31.67
2018-10-17T00:07:05.014Z,30.17
2018-10-17T00:09:33.602Z,29.30
2018-10-17T00:12:02.101Z,27.87
2018-10-17T00:14:30.605Z,28.13
2018-10-17T00:16:59.768Z,30.03
2018-10-17T00:19:28.426Z,28.50
2018-10-17T00:21:56.855Z,32.63
2018-10-17T00:24:25.351Z,30.33
2018-10-17T00:26:53.878Z,31.90
2018-10-17T00:29:22.346Z,34.13
2018-10-17T00:31:50.803Z,32.30
2018-10-17T00:34:19.463Z,34.67
2018-10-17T00:36:47.900Z,31.50
2018-10-17T00:39:16.979Z,32.43
2018-10-17T00:41:45.457Z,32.63
2018-10-17T00:44:13.918Z,34.80
2018-10-17T00:46:42.364Z,35.70
2018-10-17T00:49:10.960Z,34.53
2018-10-17T00:51:40.122Z,32.87
2018-10-17T00:54:08.554Z,34.13
2018-10-17T00:56:37.332Z,35.07
2018-10-17T00:59:09.124Z,37.23
2018-10-17T01:01:38.180Z,33.30
2018-10-17T01:04:07.319Z,32.90
2018-10-17T01:06:36.847Z,32.77
2018-10-17T01:09:09.218Z,33.03
2018-10-17T01:11:38.243Z,33.60
2018-10-17T01:14:07.603Z,33.40
2018-10-17T01:16:36.388Z,37.00
2018-10-17T01:19:05.361Z,36.50
2018-10-17T01:21:34.629Z,35.33
2018-10-17T01:24:03.124Z,36.30
2018-10-17T01:26:31.586Z,32.60
2018-10-17T01:29:00.121Z,34.07
2018-10-17T01:31:28.702Z,32.27
2018-10-17T01:33:57.135Z,33.33
2018-10-17T01:36:25.566Z,37.17
2018-10-17T01:38:54.012Z,34.30
2018-10-17T01:41:22.481Z,38.20
2018-10-17T01:43:50.926Z,34.73
2018-10-17T01:46:19.746Z,36.37
2018-10-17T01:48:48.169Z,33.87
2018-10-17T01:51:16.630Z,32.93
2018-10-17T01:53:45.062Z,35.90
2018-10-17T01:56:13.526Z,35.60
2018-10-17T01:58:41.988Z,41.13
2018-10-17T02:01:10.500Z,34.80
2018-10-17T02:03:39.077Z,36.07
2018-10-17T02:06:07.862Z,34.70
2018-10-17T02:08:36.334Z,35.30
2018-10-17T02:11:05.031Z,35.63
2018-10-17T02:13:33.600Z,36.30
2018-10-17T02:16:02.038Z,32.33
2018-10-17T02:18:30.479Z,32.50
2018-10-17T02:20:58.926Z,30.70
2018-10-17T02:23:28.084Z,31.40
2018-10-17T02:25:56.530Z,31.80
2018-10-17T02:28:24.959Z,30.93
2018-10-17T02:30:53.494Z,31.73
2018-10-17T02:33:22.050Z,34.20
2018-10-17T02:35:50.487Z,33.17
2018-10-17T02:38:18.946Z,32.30
2018-10-17T02:40:47.395Z,32.60
2018-10-17T02:43:15.884Z,32.30
2018-10-17T02:45:45.369Z,33.07
2018-10-17T02:48:13.827Z,36.43
2018-10-17T02:50:42.291Z,32.27
2018-10-17T02:53:10.855Z,39.23
2018-10-17T02:55:39.386Z,35.93
2018-10-17T02:58:07.843Z,36.43
2018-10-17T03:00:36.818Z,34.63
2018-10-17T03:03:05.376Z,33.10
2018-10-17T03:05:33.822Z,32.03
2018-10-17T03:08:02.995Z,33.10
2018-10-17T03:10:31.620Z,31.70
2018-10-17T03:13:00.367Z,31.40
2018-10-17T03:15:29.024Z,31.00
2018-10-17T03:17:57.466Z,32.70
2018-10-17T03:20:25.939Z,36.63
2018-10-17T03:22:54.458Z,34.07
2018-10-17T03:25:23.039Z,35.47
2018-10-17T03:27:51.508Z,33.50
2018-10-17T03:30:20.475Z,33.13
2018-10-17T03:32:48.915Z,32.37
2018-10-17T03:35:17.419Z,32.73
2018-10-17T03:37:45.967Z,37.70
2018-10-17T03:40:14.404Z,35.60
2018-10-17T03:42:42.859Z,33.27
2018-10-17T03:45:11.317Z,33.07
2018-10-17T03:47:39.743Z,35.73
2018-10-17T03:50:08.276Z,39.33
2018-10-17T03:52:36.829Z,37.90
2018-10-17T03:55:05.529Z,34.70
2018-10-17T03:57:47.041Z,35.27
2018-10-17T04:00:16.004Z,33.47
2018-10-17T04:02:44.435Z,37.47
2018-10-17T04:05:12.974Z,34.37
2018-10-17T04:07:41.556Z,39.93
2018-10-17T04:10:10.034Z,38.77
2018-10-17T04:12:38.438Z,34.20
2018-10-17T04:15:07.964Z,32.80
2018-10-17T04:17:36.439Z,37.73
2018-10-17T04:20:05.160Z,34.70
2018-10-17T04:22:33.668Z,22.63
2018-10-17T04:25:02.272Z,23.30
2018-10-17T04:27:30.868Z,36.37
2018-10-17T04:29:59.311Z,34.47
2018-10-17T04:32:27.762Z,37.73
2018-10-17T04:34:56.243Z,34.47
2018-10-17T04:37:24.834Z,28.77
2018-10-17T04:39:53.301Z,31.47
2018-10-17T04:42:21.740Z,36.20
2018-10-17T04:44:50.190Z,34.30
2018-10-17T04:47:18.716Z,33.90
2018-10-17T04:49:47.290Z,32.70
2018-10-17T04:52:15.720Z,29.20
2018-10-17T04:54:44.180Z,31.73
2018-10-17T04:57:12.626Z,31.70
2018-10-17T04:59:41.058Z,33.47
2018-10-17T05:02:09.525Z,32.43
2018-10-17T05:04:38.056Z,28.70
2018-10-17T05:07:07.023Z,28.67
2018-10-17T05:09:35.627Z,30.30
2018-10-17T05:12:04.099Z,29.67
2018-10-17T05:14:32.533Z,30.00
2018-10-17T05:17:01.039Z,39.27
2018-10-17T05:19:29.629Z,39.77
2018-10-17T05:21:58.092Z,42.33
2018-10-17T05:24:26.511Z,39.97
2018-10-17T05:26:54.971Z,39.53
2018-10-17T05:29:23.400Z,38.03
2018-10-17T05:31:51.866Z,39.10
2018-10-17T05:34:20.292Z,40.07
2018-10-17T05:36:48.763Z,39.17
2018-10-17T05:39:17.455Z,38.40
2018-10-17T05:41:45.950Z,39.87
2018-10-17T05:44:14.400Z,40.97
2018-10-17T05:46:43.031Z,40.10
2018-10-17T05:49:11.576Z,44.83
2018-10-17T05:51:40.158Z,45.57
2018-10-17T05:54:08.614Z,45.53
2018-10-17T05:56:38.446Z,41.33
2018-10-17T05:59:06.962Z,34.80
2018-10-17T06:01:36.188Z,32.47
2018-10-17T06:04:04.898Z,41.13
2018-10-17T06:06:33.498Z,42.13
2018-10-17T06:09:01.995Z,44.60
2018-10-17T06:11:30.461Z,37.70
2018-10-17T06:13:58.922Z,41.73
2018-10-17T06:16:27.871Z,38.83
2018-10-17T06:18:56.374Z,41.53
2018-10-17T06:21:24.956Z,39.10
2018-10-17T06:23:53.419Z,38.27
2018-10-17T06:26:22.178Z,36.83
2018-10-17T06:28:50.708Z,44.93
2018-10-17T06:31:19.382Z,38.43
2018-10-17T06:33:48.301Z,38.07
2018-10-17T06:36:16.767Z,37.83
2018-10-17T06:38:45.204Z,39.50
2018-10-17T06:41:13.718Z,37.17
2018-10-17T06:43:42.421Z,38.10
2018-10-17T06:46:11.115Z,36.60
2018-10-17T06:48:39.708Z,40.03
2018-10-17T06:51:08.194Z,40.53
2018-10-17T06:53:36.842Z,39.10
2018-10-17T06:56:06.682Z,38.67
2018-10-17T06:58:35.151Z,37.47
2018-10-17T07:01:05.320Z,36.30
2018-10-17T07:03:35.346Z,36.70
2018-10-17T07:06:03.872Z,38.60
2018-10-17T07:08:32.536Z,37.63
2018-10-17T07:11:01.837Z,36.90
2018-10-17T07:13:30.428Z,39.43
2018-10-17T07:16:03.983Z,37.07
2018-10-17T07:18:34.338Z,36.33
2018-10-17T07:21:03.722Z,36.60
2018-10-17T07:23:33.469Z,35.83
2018-10-17T07:26:11.343Z,40.10
2018-10-17T07:28:45.241Z,38.27
2018-10-17T07:31:17.683Z,36.10
2018-10-17T07:33:51.877Z,38.27
2018-10-17T07:36:25.204Z,41.33
2018-10-17T07:38:54.985Z,37.13
2018-10-17T07:41:24.874Z,35.90
2018-10-17T07:43:58.647Z,35.07
2018-10-17T07:46:48.402Z,33.47
2018-10-17T07:49:17.225Z,32.03
2018-10-17T07:52:03.001Z,32.27
2018-10-17T07:55:57.775Z,31.47
2018-10-17T07:58:26.400Z,28.97
2018-10-17T08:00:54.948Z,29.17
2018-10-17T08:03:23.577Z,27.90
2018-10-17T08:05:52.067Z,28.07
2018-10-17T08:08:20.842Z,27.70
2018-10-17T08:10:49.551Z,26.43
2018-10-17T08:13:24.441Z,27.50
2018-10-17T08:15:53.160Z,27.27
2018-10-17T08:18:22.100Z,27.67
2018-10-17T08:20:52.854Z,29.00
2018-10-17T08:23:25.724Z,27.87
2018-10-17T08:25:54.398Z,26.30
2018-10-17T08:28:24.147Z,27.93
2018-10-17T08:30:55.663Z,32.73
2018-10-17T08:33:33.937Z,26.53
2018-10-17T08:36:07.983Z,23.80
2018-10-17T08:38:37.047Z,24.23
2018-10-17T08:41:06.260Z,21.27
2018-10-17T08:43:34.961Z,22.73
2018-10-17T08:46:03.532Z,21.70
2018-10-17T08:48:32.067Z,20.37
2018-10-17T08:51:00.529Z,28.13
2018-10-17T08:53:29.099Z,25.00
2018-10-17T08:55:58.983Z,22.30
2018-10-17T08:58:27.663Z,21.40
2018-10-17T09:00:56.172Z,22.97
2018-10-17T09:03:24.652Z,21.27
2018-10-17T09:05:53.260Z,23.07
2018-10-17T09:08:22.117Z,21.30
2018-10-17T09:10:50.816Z,20.40
2018-10-17T09:13:30.460Z,22.70
2018-10-17T09:16:01.518Z,20.73
2018-10-17T09:18:31.276Z,21.20
2018-10-17T09:21:02.177Z,17.10
2018-10-17T09:23:35.737Z,24.13
2018-10-17T09:26:05.733Z,17.17
2018-10-17T09:28:35.330Z,17.73
2018-10-17T09:31:07.519Z,16.37
2018-10-17T09:33:42.086Z,15.37
2018-10-17T09:36:10.803Z,18.20
2018-10-17T09:38:42.629Z,17.47
2018-10-17T09:41:14.929Z,15.70
2018-10-17T09:43:43.774Z,15.07
2018-10-17T09:46:14.519Z,19.83
2018-10-17T09:48:45.091Z,14.73
2018-10-17T09:51:16.336Z,17.20
2018-10-17T09:53:46.119Z,16.83
2018-10-17T09:56:15.253Z,15.63
2018-10-17T09:58:47.473Z,14.47
2018-10-17T10:01:22.394Z,18.00
2018-10-17T10:03:52.524Z,14.77
2018-10-17T10:06:22.756Z,16.40
2018-10-17T10:08:56.045Z,15.00
2018-10-17T10:11:28.172Z,15.17
2018-10-17T10:14:00.858Z,14.93
2018-10-17T10:16:30.494Z,14.73
2018-10-17T10:19:00.696Z,16.80
2018-10-17T10:21:31.747Z,13.57
2018-10-17T10:24:03.263Z,13.67
2018-10-17T10:26:32.377Z,14.83
2018-10-17T10:29:00.912Z,14.73
2018-10-17T10:31:29.392Z,17.20
2018-10-17T10:33:58.661Z,17.77
2018-10-17T10:36:27.676Z,14.30
2018-10-17T10:38:56.168Z,15.60
2018-10-17T10:41:24.684Z,14.37
2018-10-17T10:43:53.267Z,14.70
2018-10-17T10:46:21.779Z,14.63
2018-10-17T10:48:50.293Z,17.30
2018-10-17T10:51:18.886Z,17.43
2018-10-17T10:55:16.715Z,16.13
2018-10-17T10:57:45.247Z,15.17
2018-10-17T11:00:13.836Z,15.37
2018-10-17T11:02:42.443Z,17.83
2018-10-17T11:05:11.055Z,16.67
2018-10-17T11:07:39.708Z,19.23
2018-10-17T11:10:08.310Z,16.17
2018-10-17T11:12:36.849Z,18.17
2018-10-17T11:15:06.832Z,17.33
2018-10-17T11:17:35.402Z,17.10
2018-10-17T11:20:04.674Z,16.53
2018-10-17T11:22:33.186Z,15.37
2018-10-17T11:25:01.762Z,15.20
2018-10-17T11:27:30.295Z,18.23
2018-10-17T11:29:58.820Z,17.73
2018-10-17T11:32:27.360Z,16.00
2018-10-17T11:34:55.950Z,18.00
2018-10-17T11:37:24.599Z,14.27
2018-10-17T11:39:53.354Z,16.43
2018-10-17T11:42:22.279Z,17.03
2018-10-17T11:44:50.865Z,19.77
2018-10-17T11:47:19.587Z,16.10
2018-10-17T11:49:48.451Z,16.03
2018-10-17T11:52:17.119Z,17.77
2018-10-17T11:54:45.703Z,15.23
2018-10-17T11:57:14.240Z,15.33
2018-10-17T11:59:42.886Z,16.00
2018-10-17T12:02:11.359Z,16.50
2018-10-17T12:04:40.214Z,16.43
2018-10-17T12:07:10.050Z,15.47
2018-10-17T12:09:38.608Z,15.00
2018-10-17T12:12:07.145Z,16.13
2018-10-17T12:14:35.821Z,15.93
2018-10-17T12:17:06.131Z,15.53
2018-10-17T12:19:34.742Z,18.30
2018-10-17T12:22:04.183Z,17.07
2018-10-17T12:24:36.346Z,14.03
2018-10-17T12:27:05.103Z,14.77
2018-10-17T12:29:33.888Z,14.43
2018-10-17T12:32:02.458Z,15.30
2018-10-17T12:34:31.287Z,18.87
2018-10-17T12:36:59.844Z,16.23
2018-10-17T12:39:28.459Z,15.37
2018-10-17T12:41:57.155Z,16.60
2018-10-17T12:44:25.658Z,14.10
2018-10-17T12:46:54.319Z,14.50
2018-10-17T12:49:22.998Z,16.60
2018-10-17T12:51:51.520Z,16.80
2018-10-17T12:54:24.347Z,15.50
2018-10-17T12:56:52.966Z,17.63
2018-10-17T12:59:21.479Z,14.67
2018-10-17T13:01:49.983Z,14.60
2018-10-17T13:04:20.302Z,14.17
2018-10-17T13:06:51.400Z,15.33
2018-10-17T13:09:20.032Z,16.63
2018-10-17T13:11:48.594Z,16.73
2018-10-17T13:14:17.320Z,20.50
2018-10-17T13:16:45.834Z,17.43
2018-10-17T13:19:14.310Z,14.90
2018-10-17T13:21:42.980Z,16.67
2018-10-17T13:24:11.475Z,17.57
2018-10-17T13:26:40.070Z,15.97
2018-10-17T13:29:08.646Z,17.23
2018-10-17T13:31:37.470Z,17.37
2018-10-17T13:34:06.274Z,16.23
2018-10-17T13:36:35.049Z,19.27
2018-10-17T13:39:06.064Z,19.90
2018-10-17T13:41:34.551Z,16.97
2018-10-17T13:44:03.207Z,19.50
2018-10-17T13:46:31.823Z,16.33
2018-10-17T13:49:00.595Z,18.00
2018-10-17T13:51:29.346Z,19.40
2018-10-17T13:53:58.323Z,15.93
2018-10-17T13:56:26.807Z,18.57
2018-10-17T13:58:55.523Z,15.83
2018-10-17T14:01:24.270Z,14.40
2018-10-17T14:03:52.856Z,17.07
2018-10-17T14:06:21.523Z,19.13
2018-10-17T14:08:50.007Z,17.23
2018-10-17T14:11:18.501Z,17.70
2018-10-17T14:13:47.150Z,17.33
2018-10-17T14:16:15.691Z,17.33
2018-10-17T14:18:44.207Z,18.60
2018-10-17T14:21:12.753Z,17.87
2018-10-17T14:23:41.375Z,18.67
2018-10-17T14:26:09.858Z,21.77
2018-10-17T14:28:38.338Z,17.57
2018-10-17T14:31:06.847Z,18.87
2018-10-17T14:33:35.355Z,18.23
2018-10-17T14:36:03.884Z,22.23
2018-10-17T14:38:32.602Z,19.70
2018-10-17T14:41:01.080Z,18.70
2018-10-17T14:43:29.754Z,20.03
2018-10-17T14:45:58.442Z,18.43
2018-10-17T14:48:26.944Z,15.77
2018-10-17T14:50:55.481Z,17.97
2018-10-17T14:53:24.106Z,17.33
2018-10-17T14:55:52.671Z,16.93
2018-10-17T14:58:21.263Z,16.23
2018-10-17T15:00:49.815Z,17.87
2018-10-17T15:03:18.339Z,16.87
2018-10-17T15:05:46.886Z,15.70
2018-10-17T15:08:15.382Z,16.43
2018-10-17T15:10:44.173Z,15.97
2018-10-17T15:13:12.732Z,19.20
2018-10-17T15:15:44.038Z,16.67
2018-10-17T15:18:13.175Z,16.43
2018-10-17T15:20:42.049Z,18.20
2018-10-17T15:23:11.197Z,19.27
2018-10-17T15:25:39.778Z,18.67
2018-10-17T15:28:08.358Z,17.10
2018-10-17T15:30:36.899Z,16.87
2018-10-17T15:33:05.443Z,14.23
2018-10-17T15:35:34.219Z,14.07
2018-10-17T15:38:02.744Z,21.17
2018-10-17T15:40:31.229Z,18.27
2018-10-17T15:42:59.725Z,17.97
2018-10-17T15:45:28.393Z,18.73
2018-10-17T15:47:56.906Z,19.33
2018-10-17T15:50:25.603Z,21.67
2018-10-17T15:52:54.125Z,19.43
2018-10-17T15:55:22.772Z,23.10
2018-10-17T15:57:51.280Z,28.00
2018-10-17T16:00:19.842Z,25.97
2018-10-17T16:02:48.583Z,28.73
2018-10-17T16:05:17.175Z,29.07
2018-10-17T16:07:45.759Z,29.73
2018-10-17T16:10:14.247Z,29.30
2018-10-17T16:12:42.778Z,27.67
2018-10-17T16:15:11.334Z,30.43
2018-10-17T16:17:39.842Z,32.40
2018-10-17T16:20:10.747Z,27.03
2018-10-17T16:22:39.747Z,26.50
2018-10-17T16:25:09.651Z,27.70
2018-10-17T16:27:38.542Z,34.10
2018-10-17T16:30:10.303Z,28.23
2018-10-17T16:32:38.992Z,27.63
2018-10-17T16:35:08.124Z,27.23
2018-10-17T16:37:37.604Z,30.00
2018-10-17T16:40:07.083Z,29.23
2018-10-17T16:42:35.590Z,27.47
2018-10-17T16:45:04.338Z,27.73
2018-10-17T16:47:32.947Z,29.70
2018-10-17T16:50:01.644Z,33.20
2018-10-17T16:52:30.351Z,28.93
2018-10-17T16:54:58.923Z,28.20
2018-10-17T16:57:27.542Z,25.63
2018-10-17T16:59:56.083Z,28.47
2018-10-17T17:02:24.747Z,31.73
2018-10-17T17:04:53.344Z,34.33
2018-10-17T17:07:21.862Z,30.67
2018-10-17T17:09:50.417Z,31.53
2018-10-17T17:12:19.156Z,30.43
2018-10-17T17:14:47.828Z,36.40
2018-10-17T17:17:16.314Z,32.77
2018-10-17T17:19:44.847Z,37.80
2018-10-17T17:22:13.396Z,32.27
2018-10-17T17:24:41.919Z,36.23
2018-10-17T17:27:10.520Z,33.00
2018-10-17T17:29:39.354Z,34.53
2018-10-17T17:32:07.992Z,37.70
2018-10-17T17:34:36.535Z,40.57
2018-10-17T17:37:05.499Z,44.20
2018-10-17T17:39:34.015Z,35.50
2018-10-17T17:42:02.581Z,39.80
2018-10-17T17:44:31.357Z,40.40
2018-10-17T17:47:00.007Z,38.33
2018-10-17T17:49:28.582Z,38.37
2018-10-17T17:51:57.079Z,39.27
2018-10-17T17:54:25.851Z,42.07
2018-10-17T17:56:54.366Z,41.53
2018-10-17T17:59:22.855Z,41.70
2018-10-17T18:01:51.358Z,39.80
2018-10-17T18:04:19.899Z,46.67
2018-10-17T18:06:48.913Z,43.80
2018-10-17T18:09:17.463Z,51.13
2018-10-17T18:11:45.967Z,49.37
2018-10-17T18:14:14.523Z,49.67
2018-10-17T18:16:43.226Z,52.43
2018-10-17T18:19:11.792Z,58.90
2018-10-17T18:21:40.379Z,60.73
2018-10-17T18:24:09.026Z,56.27
2018-10-17T18:26:37.528Z,63.97
2018-10-17T18:29:06.045Z,57.10
2018-10-17T18:31:34.580Z,55.47
2018-10-17T18:34:03.121Z,58.37
2018-10-17T18:36:31.850Z,53.80
2018-10-17T18:39:00.320Z,58.53
2018-10-17T18:41:28.850Z,59.23
2018-10-17T18:43:57.348Z,63.07
2018-10-17T18:46:25.859Z,53.97
2018-10-17T18:48:54.474Z,59.17
2018-10-17T18:51:22.941Z,57.30
2018-10-17T18:53:51.462Z,61.77
2018-10-17T18:56:19.941Z,57.37
2018-10-17T18:58:48.687Z,60.43
2018-10-17T19:01:17.193Z,65.53
2018-10-17T19:03:45.714Z,66.10
2018-10-17T19:06:19.544Z,70.93
2018-10-17T19:08:48.390Z,66.40
2018-10-17T19:11:16.888Z,68.03
2018-10-17T19:13:45.491Z,69.73
2018-10-17T19:16:14.255Z,70.67
2018-10-17T19:18:42.890Z,68.70
2018-10-17T19:21:11.419Z,72.00
2018-10-17T19:23:40.087Z,70.37
2018-10-17T19:26:08.570Z,68.13
2018-10-17T19:28:37.111Z,69.83
2018-10-17T19:31:05.950Z,68.07
2018-10-17T19:33:34.444Z,73.57
2018-10-17T19:36:03.083Z,69.60
2018-10-17T19:38:31.762Z,70.20
2018-10-17T19:41:00.255Z,73.50
2018-10-17T19:43:28.878Z,72.50
2018-10-17T19:45:57.364Z,88.47
2018-10-17T19:48:25.868Z,79.57
2018-10-17T19:50:54.384Z,71.70
2018-10-17T19:53:22.885Z,72.80
2018-10-17T19:55:51.506Z,74.07
2018-10-17T19:58:20.072Z,84.33
2018-10-17T20:00:48.595Z,75.40
2018-10-17T20:03:17.094Z,77.70
2018-10-17T20:05:45.583Z,82.93
2018-10-17T20:08:14.056Z,76.43
2018-10-17T20:10:42.555Z,72.07
2018-10-17T20:13:11.414Z,75.63
2018-10-17T20:15:39.938Z,81.20
2018-10-17T20:18:08.447Z,78.17
2018-10-17T20:20:37.029Z,78.23
2018-10-17T20:23:05.743Z,87.30
2018-10-17T20:25:34.275Z,78.87
2018-10-17T20:28:03.574Z,78.77
2018-10-17T20:30:32.175Z,74.40
2018-10-17T20:33:00.717Z,75.07
2018-10-17T20:35:29.394Z,75.50
2018-10-17T20:37:57.914Z,81.10
2018-10-17T20:40:26.419Z,75.87
2018-10-17T20:42:54.946Z,78.70
2018-10-17T20:45:25.179Z,76.87
2018-10-17T20:47:53.703Z,80.40
2018-10-17T20:50:22.235Z,80.53
2018-10-17T20:52:50.768Z,79.33
2018-10-17T20:55:20.022Z,82.83
2018-10-17T20:57:48.491Z,86.63
2018-10-17T21:00:16.972Z,79.83
2018-10-17T21:02:45.467Z,83.17
2018-10-17T21:05:13.963Z,84.67
2018-10-17T21:07:42.667Z,84.83
2018-10-17T21:10:11.273Z,83.07
2018-10-17T21:12:41.710Z,86.23
2018-10-17T21:15:10.397Z,81.27
2018-10-17T21:17:39.796Z,86.07
2018-10-17T21:20:08.735Z,83.87
2018-10-17T21:22:37.411Z,85.60
2018-10-17T21:25:06.425Z,93.93
2018-10-17T21:27:35.240Z,94.60
2018-10-17T21:30:04.116Z,87.47
2018-10-17T21:32:32.708Z,83.37
2018-10-17T21:35:01.268Z,87.87
2018-10-17T21:37:29.836Z,91.23
2018-10-17T21:39:58.593Z,104.73
2018-10-17T21:42:27.231Z,97.10
2018-10-17T21:44:55.790Z,90.70
2018-10-17T21:47:24.392Z,103.13
2018-10-17T21:49:53.055Z,110.30
2018-10-17T21:52:21.694Z,101.27
2018-10-17T21:54:50.175Z,98.27
2018-10-17T21:57:21.236Z,104.13
2018-10-17T21:59:49.779Z,104.93
2018-10-17T22:02:18.263Z,108.67
2018-10-17T22:04:46.787Z,104.70
2018-10-17T22:07:15.266Z,100.67
2018-10-17T22:09:43.767Z,100.77
2018-10-17T22:12:12.468Z,96.57
2018-10-17T22:14:41.004Z,111.77
2018-10-17T22:17:09.458Z,108.93
2018-10-17T22:19:38.799Z,109.70
2018-10-17T22:22:08.007Z,110.43
2018-10-17T22:24:36.484Z,114.47
2018-10-17T22:27:05.410Z,114.33
2018-10-17T22:29:33.900Z,113.33
2018-10-17T22:32:02.760Z,110.37
2018-10-17T22:34:31.363Z,110.57
2018-10-17T22:36:59.818Z,109.17
2018-10-17T22:39:28.311Z,115.27
2018-10-17T22:41:56.778Z,120.60
2018-10-17T22:44:25.263Z,113.40
2018-10-17T22:46:53.747Z,120.10
2018-10-17T22:49:22.238Z,122.33
2018-10-17T22:51:50.755Z,122.20
2018-10-17T22:54:19.227Z,123.73
2018-10-17T22:56:47.681Z,109.23
2018-10-17T22:59:16.179Z,111.67
2018-10-17T23:01:45.003Z,114.30
2018-10-17T23:04:13.496Z,112.73
2018-10-17T23:06:42.014Z,108.60
2018-10-17T23:09:13.531Z,110.47
2018-10-17T23:11:42.743Z,117.90
2018-10-17T23:14:11.635Z,115.17
2018-10-17T23:16:40.744Z,118.33
2018-10-17T23:19:10.323Z,111.60
2018-10-17T23:21:39.175Z,114.70
2018-10-17T23:24:07.665Z,116.50
2018-10-17T23:26:37.104Z,124.40
2018-10-17T23:29:05.626Z,122.43
2018-10-17T23:31:34.118Z,111.50
2018-10-17T23:34:02.579Z,110.43
2018-10-17T23:36:31.074Z,112.33
2018-10-17T23:38:59.575Z,112.17
2018-10-17T23:41:28.111Z,111.53
2018-10-17T23:43:56.573Z,108.03
2018-10-17T23:46:25.054Z,110.43
2018-10-17T23:48:53.515Z,101.40
2018-10-17T23:51:22.027Z,101.57
2018-10-17T23:53:51.234Z,104.17
2018-10-17T23:56:19.745Z,102.93
2018-10-17T23:58:48.203Z,99.57
